Terminal Aerodrome Forecast
Issued by NWS Bismarck, ND

Home | Current Version | Previous Version | Text Only | Print | Product List | Glossary On
Versions: 1 2 3 4 5 6 7 8 9 10 11 12 13 14
000
FTUS43 KBIS 270919 AAB
TAFISN
TAF AMD
KISN 270919Z 2709/2806 07005KT P6SM SCT050 BKN120
     FM271030 03006KT 5SM SHRA VCTS BKN050 OVC080CB
     FM271200 10006KT P6SM -SHRA VCTS BKN035 OVC080CB
     FM271800 12008KT P6SM VCSH BKN050 OVC100=

USA.gov is the U.S. government's official web portal to all federal, state and local government web resources and services.